Terminal Aerodrome Forecast
Issued by NWS Pueblo, CO

Home | Current Version | Previous Version | Text Only | Print | Product List | Glossary On
Versions: 1 2 3 4 5 6 7 8 9 10 11 12 13 14 15 16
000
FTUS45 KPUB 191918 AAA
TAFCOS
TAF AMD
KCOS 191918Z 1919/2018 19010KT P6SM VCTS SCT080CB BKN110
      TEMPO 1919/1921 VRB15G30KT 6SM -TSRA BKN080CB
     FM192200 36015G30KT P6SM VCTS SCT070CB BKN140
     FM200100 29012KT P6SM VCSH SCT100 BKN200
     FM200400 04008KT P6SM FEW100 SCT150
     FM200900 36010KT P6SM SKC
     FM201700 03015G25KT P6SM SKC=

USA.gov is the U.S. government's official web portal to all federal, state and local government web resources and services.